Guisborough, United Kingdom
Current Conditions -  °F | °C
As of 3:50 PM on Friday 24 Oct 2014 (Local Time) from EGNV Reporting Station
Few Clouds Few Clouds  
Wind Chill: 54°   Ceiling: Unl
Heat Index: 54°   Visibility: 6mi
Dew Point: 41°   Wind: 17mph
Humidity: 62%   Direction: 240°WSW
Pressure: 29.83"   Gusts: NA
Location:  54.53°N, 1.06°W
Report Text: EGNV 241450Z 24015KT 9999 FEW033 12/05 Q1010
Loading
Personal Weather Stations






























Interactive Weather Map
Tropical Storm Tracking
New forecast layout! Learn more

10-Day Weather Forecast

Advertisements
Track Severe Weather on mobile